sensor_id;sensor_type;location;lat;lon;timestamp;P1;durP1;ratioP1;P2;durP2;ratioP2
59052;SDS011;44843;44.728;10.396;2023-04-02T08:05:38;52.03;;;27.85;;
59052;SDS011;44843;44.728;10.396;2023-04-02T08:08:03;60.53;;;29.58;;
59052;SDS011;44843;44.728;10.396;2023-04-02T08:10:28;56.10;;;27.98;;
59052;SDS011;44843;44.728;10.396;2023-04-02T08:12:53;59.58;;;30.30;;
59052;SDS011;44843;44.728;10.396;2023-04-02T08:15:19;52.17;;;28.75;;
59052;SDS011;44843;44.728;10.396;2023-04-02T08:17:44;59.33;;;28.80;;
59052;SDS011;44843;44.728;10.396;2023-04-02T08:20:14;63.40;;;30.42;;
59052;SDS011;44843;44.728;10.396;2023-04-02T08:22:40;56.70;;;29.92;;
59052;SDS011;44843;44.728;10.396;2023-04-02T08:25:05;58.08;;;29.85;;
59052;SDS011;44843;44.728;10.396;2023-04-02T08:27:31;60.70;;;31.48;;
59052;SDS011;44843;44.728;10.396;2023-04-02T08:29:56;57.47;;;30.65;;
59052;SDS011;44843;44.728;10.396;2023-04-02T08:32:21;59.75;;;31.95;;
59052;SDS011;44843;44.728;10.396;2023-04-02T08:34:48;61.97;;;32.38;;
59052;SDS011;44843;44.728;10.396;2023-04-02T08:37:13;62.53;;;32.00;;
59052;SDS011;44843;44.728;10.396;2023-04-02T08:39:38;60.13;;;31.15;;
59052;SDS011;44843;44.728;10.396;2023-04-02T08:42:27;54.63;;;28.65;;
59052;SDS011;44843;44.728;10.396;2023-04-02T08:47:37;56.90;;;28.60;;
59052;SDS011;44843;44.728;10.396;2023-04-02T08:50:50;54.72;;;28.35;;
59052;SDS011;44843;44.728;10.396;2023-04-02T08:52:50;52.33;;;25.23;;
59052;SDS011;44843;44.728;10.396;2023-04-02T08:55:24;41.22;;;21.48;;
59052;SDS011;44843;44.728;10.396;2023-04-02T08:58:16;42.38;;;23.10;;
59052;SDS011;44843;44.728;10.396;2023-04-02T09:00:43;42.63;;;22.98;;
59052;SDS011;44843;44.728;10.396;2023-04-02T09:03:14;48.40;;;26.15;;
59052;SDS011;44843;44.728;10.396;2023-04-02T09:05:41;52.10;;;26.40;;
59052;SDS011;44843;44.728;10.396;2023-04-02T09:08:17;47.20;;;25.95;;
59052;SDS011;44843;44.728;10.396;2023-04-02T09:13:23;46.33;;;24.85;;
59052;SDS011;44843;44.728;10.396;2023-04-02T09:16:09;49.83;;;25.98;;
59052;SDS011;44843;44.728;10.396;2023-04-02T09:18:35;51.00;;;24.90;;
59052;SDS011;44843;44.728;10.396;2023-04-02T09:21:03;43.70;;;24.35;;
59052;SDS011;44843;44.728;10.396;2023-04-02T09:23:32;45.55;;;23.45;;
59052;SDS011;44843;44.728;10.396;2023-04-02T09:25:57;42.88;;;23.48;;
59052;SDS011;44843;44.728;10.396;2023-04-02T09:28:22;45.63;;;24.50;;
59052;SDS011;44843;44.728;10.396;2023-04-02T09:30:59;39.40;;;22.48;;
59052;SDS011;44843;44.728;10.396;2023-04-02T09:33:42;38.80;;;21.20;;
59052;SDS011;44843;44.728;10.396;2023-04-02T09:36:16;37.80;;;21.60;;
59052;SDS011;44843;44.728;10.396;2023-04-02T09:38:42;42.45;;;20.63;;
59052;SDS011;44843;44.728;10.396;2023-04-02T09:41:20;37.03;;;19.60;;
59052;SDS011;44843;44.728;10.396;2023-04-02T09:43:46;35.55;;;19.00;;
59052;SDS011;44843;44.728;10.396;2023-04-02T09:48:37;34.03;;;18.80;;
59052;SDS011;44843;44.728;10.396;2023-04-02T09:53:34;31.23;;;17.35;;
59052;SDS011;44843;44.728;10.396;2023-04-02T09:56:10;27.52;;;15.38;;
59052;SDS011;44843;44.728;10.396;2023-04-02T09:58:36;23.20;;;12.20;;
59052;SDS011;44843;44.728;10.396;2023-04-02T10:01:01;25.85;;;13.43;;
59052;SDS011;44843;44.728;10.396;2023-04-02T10:03:27;25.70;;;12.35;;
59052;SDS011;44843;44.728;10.396;2023-04-02T10:06:10;24.33;;;12.18;;
59052;SDS011;44843;44.728;10.396;2023-04-02T10:08:35;25.70;;;13.07;;
59052;SDS011;44843;44.728;10.396;2023-04-02T10:11:02;24.95;;;12.27;;
59052;SDS011;44843;44.728;10.396;2023-04-02T10:13:31;18.52;;;10.75;;
59052;SDS011;44843;44.728;10.396;2023-04-02T10:18:47;17.63;;;10.48;;
59052;SDS011;44843;44.728;10.396;2023-04-02T10:21:17;16.75;;;9.77;;
59052;SDS011;44843;44.728;10.396;2023-04-02T10:23:43;18.55;;;10.43;;
59052;SDS011;44843;44.728;10.396;2023-04-02T10:26:14;17.90;;;9.90;;
59052;SDS011;44843;44.728;10.396;2023-04-02T10:32:04;16.88;;;9.20;;
59052;SDS011;44843;44.728;10.396;2023-04-02T10:34:24;14.82;;;9.05;;
59052;SDS011;44843;44.728;10.396;2023-04-02T10:36:54;14.68;;;8.68;;
59052;SDS011;44843;44.728;10.396;2023-04-02T10:44:29;14.98;;;7.72;;
59052;SDS011;44843;44.728;10.396;2023-04-02T10:47:06;12.82;;;8.27;;
59052;SDS011;44843;44.728;10.396;2023-04-02T10:54:38;15.23;;;8.80;;
59052;SDS011;44843;44.728;10.396;2023-04-02T10:57:28;17.30;;;10.20;;
59052;SDS011;44843;44.728;10.396;2023-04-02T10:59:52;21.98;;;10.32;;
59052;SDS011;44843;44.728;10.396;2023-04-02T11:04:50;20.55;;;11.15;;
59052;SDS011;44843;44.728;10.396;2023-04-02T11:07:17;18.48;;;9.80;;
59052;SDS011;44843;44.728;10.396;2023-04-02T11:09:45;15.60;;;9.05;;
59052;SDS011;44843;44.728;10.396;2023-04-02T11:12:22;16.90;;;10.88;;
59052;SDS011;44843;44.728;10.396;2023-04-02T11:14:49;15.48;;;8.88;;
59052;SDS011;44843;44.728;10.396;2023-04-02T11:17:14;15.93;;;8.40;;
59052;SDS011;44843;44.728;10.396;2023-04-02T11:19:41;15.15;;;8.88;;
59052;SDS011;44843;44.728;10.396;2023-04-02T11:24:46;13.13;;;7.60;;
59052;SDS011;44843;44.728;10.396;2023-04-02T11:30:23;17.48;;;8.95;;
59052;SDS011;44843;44.728;10.396;2023-04-02T11:35:03;15.25;;;9.00;;
59052;SDS011;44843;44.728;10.396;2023-04-02T11:39:55;16.08;;;9.55;;
59052;SDS011;44843;44.728;10.396;2023-04-02T11:42:23;16.27;;;9.00;;
59052;SDS011;44843;44.728;10.396;2023-04-02T11:44:49;15.30;;;8.05;;
59052;SDS011;44843;44.728;10.396;2023-04-02T11:47:19;9.85;;;6.00;;
59052;SDS011;44843;44.728;10.396;2023-04-02T11:52:22;8.15;;;3.45;;
59052;SDS011;44843;44.728;10.396;2023-04-02T11:55:30;3.53;;;1.90;;
59052;SDS011;44843;44.728;10.396;2023-04-02T12:02:47;7.20;;;4.18;;
59052;SDS011;44843;44.728;10.396;2023-04-02T12:12:47;12.25;;;6.85;;
59052;SDS011;44843;44.728;10.396;2023-04-02T12:15:30;12.93;;;7.43;;
59052;SDS011;44843;44.728;10.396;2023-04-02T12:18:30;9.30;;;5.82;;
59052;SDS011;44843;44.728;10.396;2023-04-02T12:20:52;7.25;;;4.90;;
59052;SDS011;44843;44.728;10.396;2023-04-02T12:23:28;10.45;;;6.03;;
59052;SDS011;44843;44.728;10.396;2023-04-02T12:25:58;9.05;;;5.18;;
59052;SDS011;44843;44.728;10.396;2023-04-02T12:28:24;10.50;;;5.88;;
59052;SDS011;44843;44.728;10.396;2023-04-02T12:31:00;12.88;;;6.32;;
59052;SDS011;44843;44.728;10.396;2023-04-02T12:33:27;9.70;;;5.90;;
59052;SDS011;44843;44.728;10.396;2023-04-02T12:35:55;8.93;;;5.55;;
59052;SDS011;44843;44.728;10.396;2023-04-02T12:38:25;9.68;;;5.00;;
59052;SDS011;44843;44.728;10.396;2023-04-02T12:40:56;9.15;;;5.65;;
59052;SDS011;44843;44.728;10.396;2023-04-02T12:43:25;10.05;;;5.97;;
59052;SDS011;44843;44.728;10.396;2023-04-02T12:45:52;7.22;;;4.80;;
59052;SDS011;44843;44.728;10.396;2023-04-02T12:48:18;7.35;;;4.93;;
59052;SDS011;44843;44.728;10.396;2023-04-02T12:50:43;6.95;;;4.30;;
59052;SDS011;44843;44.728;10.396;2023-04-02T12:53:15;6.57;;;4.20;;
59052;SDS011;44843;44.728;10.396;2023-04-02T12:55:45;7.60;;;4.68;;
59052;SDS011;44843;44.728;10.396;2023-04-02T13:01:26;6.55;;;4.20;;
59052;SDS011;44843;44.728;10.396;2023-04-02T13:03:59;5.32;;;3.67;;
59052;SDS011;44843;44.728;10.396;2023-04-02T13:06:25;7.90;;;3.97;;
59052;SDS011;44843;44.728;10.396;2023-04-02T13:08:51;5.30;;;3.08;;
59052;SDS011;44843;44.728;10.396;2023-04-02T13:11:16;5.70;;;3.30;;
59052;SDS011;44843;44.728;10.396;2023-04-02T13:13:42;5.88;;;3.17;;
59052;SDS011;44843;44.728;10.396;2023-04-02T13:18:40;4.18;;;2.95;;
59052;SDS011;44843;44.728;10.396;2023-04-02T13:21:26;4.90;;;3.00;;
59052;SDS011;44843;44.728;10.396;2023-04-02T13:23:51;4.57;;;2.88;;
59052;SDS011;44843;44.728;10.396;2023-04-02T13:28:42;6.10;;;3.05;;
59052;SDS011;44843;44.728;10.396;2023-04-02T13:31:14;4.63;;;3.03;;
59052;SDS011;44843;44.728;10.396;2023-04-02T13:33:40;6.00;;;3.17;;
59052;SDS011;44843;44.728;10.396;2023-04-02T13:36:07;7.45;;;3.25;;
59052;SDS011;44843;44.728;10.396;2023-04-02T13:38:33;4.85;;;3.00;;
59052;SDS011;44843;44.728;10.396;2023-04-02T13:40:58;4.18;;;2.92;;
59052;SDS011;44843;44.728;10.396;2023-04-02T13:43:24;3.88;;;2.20;;
59052;SDS011;44843;44.728;10.396;2023-04-02T13:45:50;4.15;;;2.28;;
59052;SDS011;44843;44.728;10.396;2023-04-02T13:48:16;2.55;;;1.65;;
59052;SDS011;44843;44.728;10.396;2023-04-02T13:50:42;2.65;;;1.80;;
59052;SDS011;44843;44.728;10.396;2023-04-02T13:53:10;4.97;;;2.63;;
59052;SDS011;44843;44.728;10.396;2023-04-02T13:55:37;2.45;;;1.40;;
59052;SDS011;44843;44.728;10.396;2023-04-02T13:58:04;3.08;;;1.88;;
59052;SDS011;44843;44.728;10.396;2023-04-02T14:00:29;3.47;;;2.35;;
59052;SDS011;44843;44.728;10.396;2023-04-02T14:02:57;3.95;;;1.83;;
59052;SDS011;44843;44.728;10.396;2023-04-02T14:12:56;4.93;;;3.17;;
59052;SDS011;44843;44.728;10.396;2023-04-02T14:30:22;5.88;;;3.72;;
59052;SDS011;44843;44.728;10.396;2023-04-02T14:33:08;4.60;;;3.22;;
59052;SDS011;44843;44.728;10.396;2023-04-02T14:35:40;5.03;;;3.25;;
59052;SDS011;44843;44.728;10.396;2023-04-02T14:40:46;4.68;;;3.65;;
59052;SDS011;44843;44.728;10.396;2023-04-02T14:45:45;6.03;;;4.00;;
59052;SDS011;44843;44.728;10.396;2023-04-02T14:50:52;7.90;;;4.72;;
59052;SDS011;44843;44.728;10.396;2023-04-02T14:53:20;8.70;;;5.25;;
59052;SDS011;44843;44.728;10.396;2023-04-02T14:55:47;8.52;;;5.70;;
59052;SDS011;44843;44.728;10.396;2023-04-02T15:01:08;11.43;;;6.15;;
59052;SDS011;44843;44.728;10.396;2023-04-02T15:03:36;9.85;;;6.32;;
59052;SDS011;44843;44.728;10.396;2023-04-02T15:06:05;11.80;;;5.93;;
59052;SDS011;44843;44.728;10.396;2023-04-02T15:08:36;8.48;;;5.00;;
59052;SDS011;44843;44.728;10.396;2023-04-02T15:11:10;10.75;;;5.90;;
59052;SDS011;44843;44.728;10.396;2023-04-02T15:13:40;11.45;;;7.25;;
59052;SDS011;44843;44.728;10.396;2023-04-02T15:16:12;12.68;;;7.47;;
59052;SDS011;44843;44.728;10.396;2023-04-02T15:18:38;11.00;;;6.90;;
59052;SDS011;44843;44.728;10.396;2023-04-02T15:23:49;8.80;;;5.35;;
59052;SDS011;44843;44.728;10.396;2023-04-02T15:28:42;7.00;;;4.80;;
59052;SDS011;44843;44.728;10.396;2023-04-02T15:31:11;6.63;;;4.32;;
59052;SDS011;44843;44.728;10.396;2023-04-02T15:33:43;8.90;;;4.45;;
59052;SDS011;44843;44.728;10.396;2023-04-02T15:36:15;6.88;;;4.55;;
59052;SDS011;44843;44.728;10.396;2023-04-02T15:38:51;6.53;;;4.07;;
59052;SDS011;44843;44.728;10.396;2023-04-02T15:41:21;4.63;;;3.55;;
59052;SDS011;44843;44.728;10.396;2023-04-02T15:49:01;6.95;;;4.30;;
59052;SDS011;44843;44.728;10.396;2023-04-02T15:51:34;7.25;;;3.78;;
59052;SDS011;44843;44.728;10.396;2023-04-02T15:56:51;5.00;;;3.75;;
59052;SDS011;44843;44.728;10.396;2023-04-02T16:04:52;3.85;;;2.90;;
59052;SDS011;44843;44.728;10.396;2023-04-02T16:07:23;4.75;;;3.10;;
59052;SDS011;44843;44.728;10.396;2023-04-02T16:10:34;4.05;;;3.00;;
59052;SDS011;44843;44.728;10.396;2023-04-02T16:12:40;5.13;;;3.00;;
59052;SDS011;44843;44.728;10.396;2023-04-02T16:15:13;5.32;;;2.88;;
59052;SDS011;44843;44.728;10.396;2023-04-02T16:17:40;4.65;;;3.10;;
59052;SDS011;44843;44.728;10.396;2023-04-02T16:20:23;4.43;;;2.80;;
59052;SDS011;44843;44.728;10.396;2023-04-02T16:25:48;4.18;;;3.05;;
59052;SDS011;44843;44.728;10.396;2023-04-02T16:28:22;2.75;;;2.47;;
59052;SDS011;44843;44.728;10.396;2023-04-02T16:35:53;3.28;;;2.20;;
59052;SDS011;44843;44.728;10.396;2023-04-02T16:43:46;3.72;;;2.75;;
59052;SDS011;44843;44.728;10.396;2023-04-02T16:48:49;4.40;;;2.30;;
59052;SDS011;44843;44.728;10.396;2023-04-02T16:53:53;5.63;;;2.67;;
59052;SDS011;44843;44.728;10.396;2023-04-02T16:56:26;4.35;;;3.00;;
59052;SDS011;44843;44.728;10.396;2023-04-02T17:09:49;5.47;;;4.72;;
59052;SDS011;44843;44.728;10.396;2023-04-02T17:12:22;9.23;;;5.47;;
59052;SDS011;44843;44.728;10.396;2023-04-02T17:17:21;6.38;;;3.90;;
59052;SDS011;44843;44.728;10.396;2023-04-02T17:19:46;4.18;;;2.67;;
59052;SDS011;44843;44.728;10.396;2023-04-02T17:22:15;3.80;;;3.03;;
59052;SDS011;44843;44.728;10.396;2023-04-02T17:24:48;5.07;;;2.75;;
59052;SDS011;44843;44.728;10.396;2023-04-02T17:29:41;5.03;;;3.05;;
59052;SDS011;44843;44.728;10.396;2023-04-02T17:32:15;5.50;;;3.42;;
59052;SDS011;44843;44.728;10.396;2023-04-02T17:34:42;6.72;;;2.90;;
59052;SDS011;44843;44.728;10.396;2023-04-02T17:37:14;4.38;;;3.00;;
59052;SDS011;44843;44.728;10.396;2023-04-02T17:47:21;7.13;;;3.53;;
59052;SDS011;44843;44.728;10.396;2023-04-02T17:50:00;6.00;;;3.15;;
59052;SDS011;44843;44.728;10.396;2023-04-02T17:52:36;5.78;;;2.90;;
59052;SDS011;44843;44.728;10.396;2023-04-02T17:57:42;5.05;;;2.20;;
59052;SDS011;44843;44.728;10.396;2023-04-02T18:02:58;6.10;;;2.40;;
59052;SDS011;44843;44.728;10.396;2023-04-02T18:05:51;3.42;;;2.38;;
59052;SDS011;44843;44.728;10.396;2023-04-02T18:08:17;4.80;;;2.90;;
59052;SDS011;44843;44.728;10.396;2023-04-02T18:13:29;4.57;;;3.45;;
59052;SDS011;44843;44.728;10.396;2023-04-02T18:18:38;3.45;;;3.05;;
59052;SDS011;44843;44.728;10.396;2023-04-02T18:28:40;6.90;;;4.00;;
59052;SDS011;44843;44.728;10.396;2023-04-02T18:36:21;4.78;;;3.38;;
59052;SDS011;44843;44.728;10.396;2023-04-02T18:44:00;6.75;;;3.63;;
59052;SDS011;44843;44.728;10.396;2023-04-02T18:51:36;7.40;;;3.72;;
59052;SDS011;44843;44.728;10.396;2023-04-02T18:56:31;4.15;;;2.78;;
59052;SDS011;44843;44.728;10.396;2023-04-02T19:01:41;5.85;;;2.92;;
59052;SDS011;44843;44.728;10.396;2023-04-02T19:04:11;3.28;;;2.53;;
59052;SDS011;44843;44.728;10.396;2023-04-02T19:06:40;3.05;;;2.40;;
59052;SDS011;44843;44.728;10.396;2023-04-02T19:09:15;5.78;;;2.70;;
59052;SDS011;44843;44.728;10.396;2023-04-02T19:11:41;3.70;;;2.58;;
59052;SDS011;44843;44.728;10.396;2023-04-02T19:14:10;4.03;;;2.13;;
59052;SDS011;44843;44.728;10.396;2023-04-02T19:16:42;4.07;;;2.55;;
59052;SDS011;44843;44.728;10.396;2023-04-02T19:19:16;4.63;;;2.72;;
59052;SDS011;44843;44.728;10.396;2023-04-02T19:21:59;2.67;;;2.35;;
59052;SDS011;44843;44.728;10.396;2023-04-02T19:27:17;2.70;;;2.25;;
59052;SDS011;44843;44.728;10.396;2023-04-02T19:32:37;4.18;;;2.75;;
59052;SDS011;44843;44.728;10.396;2023-04-02T19:35:18;3.47;;;2.47;;
59052;SDS011;44843;44.728;10.396;2023-04-02T19:37:50;8.27;;;4.85;;
59052;SDS011;44843;44.728;10.396;2023-04-02T19:42:51;4.90;;;3.50;;
59052;SDS011;44843;44.728;10.396;2023-04-02T19:45:27;5.72;;;3.05;;
59052;SDS011;44843;44.728;10.396;2023-04-02T19:47:54;4.18;;;2.60;;
59052;SDS011;44843;44.728;10.396;2023-04-02T19:50:20;4.60;;;2.72;;
59052;SDS011;44843;44.728;10.396;2023-04-02T19:52:45;4.15;;;3.40;;
59052;SDS011;44843;44.728;10.396;2023-04-02T19:55:10;3.60;;;2.50;;
59052;SDS011;44843;44.728;10.396;2023-04-02T19:57:36;3.65;;;2.38;;
59052;SDS011;44843;44.728;10.396;2023-04-02T20:00:01;5.65;;;3.05;;
59052;SDS011;44843;44.728;10.396;2023-04-02T20:02:26;5.35;;;2.92;;
59052;SDS011;44843;44.728;10.396;2023-04-02T20:04:51;5.43;;;3.15;;
59052;SDS011;44843;44.728;10.396;2023-04-02T20:07:17;6.60;;;3.90;;
59052;SDS011;44843;44.728;10.396;2023-04-02T20:09:42;5.00;;;3.13;;
59052;SDS011;44843;44.728;10.396;2023-04-02T20:12:07;4.07;;;3.25;;
59052;SDS011;44843;44.728;10.396;2023-04-02T20:14:33;5.70;;;3.08;;
59052;SDS011;44843;44.728;10.396;2023-04-02T20:16:58;6.57;;;3.53;;
59052;SDS011;44843;44.728;10.396;2023-04-02T20:19:24;4.85;;;3.53;;
59052;SDS011;44843;44.728;10.396;2023-04-02T20:21:49;4.68;;;3.28;;
59052;SDS011;44843;44.728;10.396;2023-04-02T20:24:15;3.92;;;2.85;;
59052;SDS011;44843;44.728;10.396;2023-04-02T20:26:40;5.50;;;3.40;;
59052;SDS011;44843;44.728;10.396;2023-04-02T20:29:06;4.30;;;3.15;;
59052;SDS011;44843;44.728;10.396;2023-04-02T20:31:31;4.18;;;3.20;;
59052;SDS011;44843;44.728;10.396;2023-04-02T20:33:56;4.07;;;3.08;;
59052;SDS011;44843;44.728;10.396;2023-04-02T20:36:22;7.88;;;5.05;;
59052;SDS011;44843;44.728;10.396;2023-04-02T20:38:48;6.68;;;4.32;;
59052;SDS011;44843;44.728;10.396;2023-04-02T20:41:15;6.00;;;3.42;;
59052;SDS011;44843;44.728;10.396;2023-04-02T20:43:41;3.75;;;2.60;;
59052;SDS011;44843;44.728;10.396;2023-04-02T20:46:06;4.25;;;2.40;;
59052;SDS011;44843;44.728;10.396;2023-04-02T20:48:33;7.90;;;3.42;;
59052;SDS011;44843;44.728;10.396;2023-04-02T20:50:58;6.00;;;3.75;;
59052;SDS011;44843;44.728;10.396;2023-04-02T20:53:24;14.10;;;7.13;;
59052;SDS011;44843;44.728;10.396;2023-04-02T20:55:50;12.15;;;5.95;;
59052;SDS011;44843;44.728;10.396;2023-04-02T20:58:16;9.38;;;5.15;;
59052;SDS011;44843;44.728;10.396;2023-04-02T21:00:42;10.73;;;5.50;;
59052;SDS011;44843;44.728;10.396;2023-04-02T21:03:08;14.80;;;7.38;;
59052;SDS011;44843;44.728;10.396;2023-04-02T21:05:34;8.98;;;5.38;;
59052;SDS011;44843;44.728;10.396;2023-04-02T21:07:59;8.52;;;5.00;;
59052;SDS011;44843;44.728;10.396;2023-04-02T21:10:24;6.43;;;4.65;;
59052;SDS011;44843;44.728;10.396;2023-04-02T21:12:50;6.93;;;3.80;;
59052;SDS011;44843;44.728;10.396;2023-04-02T21:15:15;7.30;;;2.83;;
59052;SDS011;44843;44.728;10.396;2023-04-02T21:17:40;4.03;;;2.60;;
59052;SDS011;44843;44.728;10.396;2023-04-02T21:20:05;5.60;;;2.65;;
59052;SDS011;44843;44.728;10.396;2023-04-02T21:22:31;2.63;;;2.42;;
59052;SDS011;44843;44.728;10.396;2023-04-02T21:24:56;4.03;;;2.30;;
59052;SDS011;44843;44.728;10.396;2023-04-02T21:27:21;6.00;;;3.55;;
59052;SDS011;44843;44.728;10.396;2023-04-02T21:29:50;6.95;;;4.00;;
59052;SDS011;44843;44.728;10.396;2023-04-02T21:32:15;5.60;;;3.15;;
59052;SDS011;44843;44.728;10.396;2023-04-02T21:34:40;5.90;;;3.42;;
59052;SDS011;44843;44.728;10.396;2023-04-02T21:37:06;8.07;;;3.50;;
59052;SDS011;44843;44.728;10.396;2023-04-02T21:39:31;6.93;;;3.05;;
59052;SDS011;44843;44.728;10.396;2023-04-02T21:41:58;4.63;;;2.72;;
59052;SDS011;44843;44.728;10.396;2023-04-02T21:44:23;4.63;;;2.72;;
59052;SDS011;44843;44.728;10.396;2023-04-02T21:46:48;3.42;;;2.30;;
59052;SDS011;44843;44.728;10.396;2023-04-02T21:49:15;4.43;;;2.22;;
59052;SDS011;44843;44.728;10.396;2023-04-02T21:51:41;4.32;;;2.25;;
59052;SDS011;44843;44.728;10.396;2023-04-02T21:54:06;3.47;;;2.17;;
59052;SDS011;44843;44.728;10.396;2023-04-02T21:56:32;3.10;;;2.10;;
59052;SDS011;44843;44.728;10.396;2023-04-02T21:58:59;4.03;;;2.20;;
59052;SDS011;44843;44.728;10.396;2023-04-02T22:01:26;5.43;;;2.63;;
59052;SDS011;44843;44.728;10.396;2023-04-02T22:03:52;5.85;;;2.83;;
59052;SDS011;44843;44.728;10.396;2023-04-02T22:06:18;5.13;;;2.13;;
59052;SDS011;44843;44.728;10.396;2023-04-02T22:08:44;2.97;;;2.00;;
59052;SDS011;44843;44.728;10.396;2023-04-02T22:11:13;4.68;;;1.90;;
59052;SDS011;44843;44.728;10.396;2023-04-02T22:13:39;3.13;;;2.25;;
59052;SDS011;44843;44.728;10.396;2023-04-02T22:16:06;3.92;;;2.33;;
59052;SDS011;44843;44.728;10.396;2023-04-02T22:18:32;5.05;;;2.50;;
59052;SDS011;44843;44.728;10.396;2023-04-02T22:20:58;3.58;;;2.30;;
59052;SDS011;44843;44.728;10.396;2023-04-02T22:23:24;2.70;;;2.13;;
59052;SDS011;44843;44.728;10.396;2023-04-02T22:25:53;5.78;;;2.60;;
59052;SDS011;44843;44.728;10.396;2023-04-02T22:28:18;3.95;;;2.20;;
59052;SDS011;44843;44.728;10.396;2023-04-02T22:30:43;6.57;;;2.53;;
59052;SDS011;44843;44.728;10.396;2023-04-02T22:33:09;3.50;;;1.65;;
59052;SDS011;44843;44.728;10.396;2023-04-02T22:35:34;2.65;;;1.77;;
59052;SDS011;44843;44.728;10.396;2023-04-02T22:38:00;1.90;;;1.67;;
59052;SDS011;44843;44.728;10.396;2023-04-02T22:40:25;2.78;;;1.63;;
59052;SDS011;44843;44.728;10.396;2023-04-02T22:42:51;3.78;;;1.67;;
59052;SDS011;44843;44.728;10.396;2023-04-02T22:45:16;3.42;;;1.67;;
59052;SDS011;44843;44.728;10.396;2023-04-02T22:47:42;2.28;;;1.70;;
59052;SDS011;44843;44.728;10.396;2023-04-02T22:50:08;1.65;;;1.55;;
59052;SDS011;44843;44.728;10.396;2023-04-02T22:52:33;10.25;;;1.60;;
59052;SDS011;44843;44.728;10.396;2023-04-02T22:54:58;2.10;;;1.73;;
59052;SDS011;44843;44.728;10.396;2023-04-02T22:57:24;2.95;;;1.60;;
59052;SDS011;44843;44.728;10.396;2023-04-02T22:59:49;4.45;;;2.08;;
59052;SDS011;44843;44.728;10.396;2023-04-02T23:02:15;2.25;;;1.42;;
59052;SDS011;44843;44.728;10.396;2023-04-02T23:04:40;5.65;;;1.80;;
59052;SDS011;44843;44.728;10.396;2023-04-02T23:07:05;1.40;;;1.20;;
59052;SDS011;44843;44.728;10.396;2023-04-02T23:09:31;3.42;;;1.73;;
59052;SDS011;44843;44.728;10.396;2023-04-02T23:11:56;2.75;;;1.65;;
59052;SDS011;44843;44.728;10.396;2023-04-02T23:14:21;2.72;;;1.80;;
59052;SDS011;44843;44.728;10.396;2023-04-02T23:16:46;2.60;;;1.88;;
59052;SDS011;44843;44.728;10.396;2023-04-02T23:19:11;1.67;;;1.52;;
59052;SDS011;44843;44.728;10.396;2023-04-02T23:21:37;2.47;;;1.67;;
59052;SDS011;44843;44.728;10.396;2023-04-02T23:24:02;3.20;;;2.00;;
59052;SDS011;44843;44.728;10.396;2023-04-02T23:26:28;3.42;;;1.77;;
59052;SDS011;44843;44.728;10.396;2023-04-02T23:28:55;1.98;;;1.60;;
59052;SDS011;44843;44.728;10.396;2023-04-02T23:31:21;3.53;;;1.60;;
59052;SDS011;44843;44.728;10.396;2023-04-02T23:33:46;2.75;;;2.00;;
59052;SDS011;44843;44.728;10.396;2023-04-02T23:38:40;2.88;;;1.90;;
59052;SDS011;44843;44.728;10.396;2023-04-02T23:41:05;2.75;;;1.73;;
59052;SDS011;44843;44.728;10.396;2023-04-02T23:43:30;4.18;;;1.80;;
59052;SDS011;44843;44.728;10.396;2023-04-02T23:45:56;2.63;;;1.52;;
59052;SDS011;44843;44.728;10.396;2023-04-02T23:48:21;1.73;;;1.52;;
59052;SDS011;44843;44.728;10.396;2023-04-02T23:50:46;3.47;;;1.80;;
59052;SDS011;44843;44.728;10.396;2023-04-02T23:53:12;1.80;;;1.50;;
59052;SDS011;44843;44.728;10.396;2023-04-02T23:55:37;2.72;;;1.55;;
59052;SDS011;44843;44.728;10.396;2023-04-02T23:58:03;2.53;;;1.50;;
